Time;durP1;ratioP1;P1;durP2;ratioP2;P2;SDS_P1;SDS_P2;PMS_P1;PMS_P2;Temp;Humidity;BMP_temperature;BMP_pressure;BME280_temperature;BME280_humidity;BME280_pressure;Samples;Min_cycle;Max_cycle;Signal;HPM_P1;HPM_P2
2023/06/17 00:00:36;;;;;;;8.77;4.70;;;16.70;98.00;;;;;;5092916;28;20462;-68
2023/06/17 00:03:04;;;;;;;6.00;3.90;;;16.80;98.00;;;;;;5092782;28;20448;-68
2023/06/17 00:05:31;;;;;;;7.77;4.60;;;16.90;98.00;;;;;;5092348;28;20455;-68
2023/06/17 00:07:58;;;;;;;17.60;7.47;;;16.80;98.00;;;;;;5091400;28;20460;-68
2023/06/17 00:10:25;;;;;;;10.63;4.97;;;16.60;98.00;;;;;;5090700;28;20487;-68
2023/06/17 00:12:54;;;;;;;7.10;4.03;;;16.50;98.00;;;;;;5091253;28;20529;-68
2023/06/17 00:15:22;;;;;;;6.23;3.43;;;16.40;98.00;;;;;;5092279;28;21011;-68
2023/06/17 00:17:50;;;;;;;8.63;4.30;;;16.30;98.00;;;;;;5092214;28;20452;-68
2023/06/17 00:20:17;;;;;;;8.03;4.07;;;16.20;98.00;;;;;;5092415;28;20852;-68
2023/06/17 00:22:44;;;;;;;5.57;3.33;;;16.10;98.00;;;;;;5092213;28;20564;-67
2023/06/17 00:25:13;;;;;;;6.40;4.23;;;16.20;98.00;;;;;;5092493;28;20505;-68
2023/06/17 00:27:40;;;;;;;6.83;3.80;;;16.40;98.00;;;;;;5092284;28;20456;-68
2023/06/17 00:30:10;;;;;;;6.60;3.70;;;16.30;98.00;;;;;;5092035;28;20518;-68
2023/06/17 00:32:39;;;;;;;7.67;3.90;;;15.90;98.00;;;;;;5091070;28;20509;-67
2023/06/17 00:35:07;;;;;;;8.13;4.33;;;15.80;98.00;;;;;;5092376;28;20452;-68
2023/06/17 00:37:35;;;;;;;5.73;3.67;;;15.80;98.00;;;;;;5092277;28;20452;-67
2023/06/17 00:40:07;;;;;;;8.87;4.40;;;15.70;98.00;;;;;;5092230;28;20460;-67
2023/06/17 00:42:34;;;;;;;8.43;4.27;;;15.70;98.00;;;;;;5092202;28;20451;-67
2023/06/17 00:45:01;;;;;;;9.27;4.53;;;15.90;98.00;;;;;;5092101;28;20495;-68
2023/06/17 00:47:31;;;;;;;6.87;4.03;;;15.90;98.00;;;;;;5092220;28;20505;-67
2023/06/17 00:49:59;;;;;;;7.00;4.10;;;15.90;98.00;;;;;;5090855;28;20890;-67
2023/06/17 00:52:28;;;;;;;6.47;3.90;;;15.80;98.00;;;;;;5092264;28;20452;-67
2023/06/17 00:54:55;;;;;;;8.60;4.27;;;15.80;98.00;;;;;;5090908;28;20517;-67
2023/06/17 00:57:23;;;;;;;8.93;4.23;;;15.80;98.00;;;;;;5092044;28;20468;-67
2023/06/17 00:59:50;;;;;;;6.67;4.10;;;15.70;98.00;;;;;;5091910;28;20463;-67
2023/06/17 01:02:17;;;;;;;5.93;3.70;;;15.70;98.00;;;;;;5091870;28;20451;-67
2023/06/17 01:04:46;;;;;;;8.70;4.30;;;15.90;98.00;;;;;;5091627;28;20547;-67
2023/06/17 01:07:29;;;;;;;9.33;4.17;;;15.90;98.00;;;;;;5091762;28;20945;-67
2023/06/17 01:10:03;;;;;;;7.77;4.30;;;15.60;98.00;;;;;;5091658;28;20491;-67
2023/06/17 01:12:31;;;;;;;8.87;4.57;;;15.50;98.00;;;;;;5091822;28;20864;-67
2023/06/17 01:15:01;;;;;;;6.40;3.80;;;15.50;98.00;;;;;;5091661;28;20448;-67
2023/06/17 01:17:30;;;;;;;6.23;3.80;;;15.30;98.00;;;;;;5091651;28;20539;-67
2023/06/17 01:19:59;;;;;;;7.10;3.97;;;15.10;98.00;;;;;;5091589;28;20547;-67
2023/06/17 01:22:27;;;;;;;6.57;3.87;;;15.30;98.00;;;;;;5091772;28;20965;-67
2023/06/17 01:25:01;;;;;;;5.97;4.17;;;15.40;98.00;;;;;;5090477;28;20852;-67
2023/06/17 01:27:29;;;;;;;5.23;3.40;;;15.50;98.00;;;;;;5091642;28;20458;-67
2023/06/17 01:29:56;;;;;;;7.20;4.30;;;15.30;98.00;;;;;;5091562;28;20471;-67
2023/06/17 01:32:23;;;;;;;6.93;3.60;;;15.30;98.00;;;;;;5091775;28;20470;-67
2023/06/17 01:34:56;;;;;;;9.13;3.67;;;15.50;98.00;;;;;;5091589;28;20791;-67
2023/06/17 01:37:29;;;;;;;6.90;3.63;;;15.60;98.00;;;;;;5091811;28;20500;-67
2023/06/17 01:40:01;;;;;;;4.97;3.47;;;15.60;98.00;;;;;;5090728;28;20452;-67
2023/06/17 01:42:32;;;;;;;5.90;3.77;;;15.50;98.00;;;;;;5091816;28;20989;-67
2023/06/17 01:45:03;;;;;;;9.53;4.53;;;15.50;98.00;;;;;;5091642;28;20448;-68
2023/06/17 01:47:30;;;;;;;6.57;4.10;;;15.20;98.00;;;;;;5091904;28;20468;-67
2023/06/17 01:50:00;;;;;;;7.33;3.97;;;15.20;98.00;;;;;;5091488;28;20996;-67
2023/06/17 01:52:27;;;;;;;8.80;4.33;;;14.90;98.00;;;;;;5091643;28;21278;-67
2023/06/17 01:54:55;;;;;;;8.40;4.20;;;14.70;98.00;;;;;;5094611;28;20454;-67
2023/06/17 01:57:23;;;;;;;6.07;3.67;;;14.70;98.00;;;;;;5095080;28;20451;-67
2023/06/17 01:59:50;;;;;;;7.47;4.13;;;14.70;98.00;;;;;;5094974;28;20516;-67
2023/06/17 02:02:17;;;;;;;7.93;3.83;;;14.60;98.00;;;;;;5095030;28;20447;-67
2023/06/17 02:04:47;;;;;;;6.70;4.23;;;14.60;98.00;;;;;;5094848;28;20512;-67
2023/06/17 02:07:16;;;;;;;9.50;3.90;;;14.70;98.00;;;;;;5094928;28;20455;-67
2023/06/17 02:09:43;;;;;;;6.53;4.37;;;14.60;98.00;;;;;;5094786;28;20502;-67
2023/06/17 02:12:11;;;;;;;7.77;4.10;;;14.90;98.00;;;;;;5094649;28;20459;-67
2023/06/17 02:14:39;;;;;;;7.90;4.50;;;14.80;98.00;;;;;;5094718;28;20542;-67
2023/06/17 02:17:11;;;;;;;7.10;3.80;;;14.60;98.00;;;;;;5094742;28;20467;-67
2023/06/17 02:19:39;;;;;;;8.83;4.10;;;14.50;98.00;;;;;;5094519;28;20455;-67
2023/06/17 02:22:08;;;;;;;9.20;4.57;;;14.40;98.00;;;;;;5094534;28;20452;-67
2023/06/17 02:24:36;;;;;;;8.00;4.40;;;14.50;98.00;;;;;;5093916;28;20455;-67
2023/06/17 02:27:05;;;;;;;7.80;3.90;;;14.60;98.00;;;;;;5094580;28;20451;-67
2023/06/17 02:29:32;;;;;;;6.20;3.60;;;14.80;98.00;;;;;;5094481;28;20482;-67
2023/06/17 02:32:00;;;;;;;6.97;3.90;;;14.90;98.00;;;;;;5094395;28;20488;-67
2023/06/17 02:34:33;;;;;;;8.10;4.43;;;14.80;98.00;;;;;;5094365;28;20448;-67
2023/06/17 02:37:00;;;;;;;8.30;4.50;;;14.70;98.00;;;;;;5093393;28;20452;-67
2023/06/17 02:39:29;;;;;;;7.00;3.90;;;14.40;98.00;;;;;;5093277;28;20452;-67
2023/06/17 02:41:56;;;;;;;7.80;4.20;;;14.40;98.00;;;;;;5094338;28;20447;-67
2023/06/17 02:44:23;;;;;;;11.47;4.13;;;14.40;98.00;;;;;;5094500;28;20456;-67
2023/06/17 02:46:50;;;;;;;10.40;4.80;;;14.10;98.00;;;;;;5094158;28;20460;-67
2023/06/17 02:49:19;;;;;;;8.87;4.60;;;14.00;98.00;;;;;;5093881;28;20460;-67
2023/06/17 02:51:47;;;;;;;8.30;4.57;;;13.90;98.00;;;;;;5094172;28;20456;-67
2023/06/17 02:54:14;;;;;;;7.20;4.37;;;13.80;98.00;;;;;;5092738;28;20454;-67
2023/06/17 02:56:43;;;;;;;10.23;4.20;;;13.80;98.00;;;;;;5093910;28;20941;-67
2023/06/17 02:59:10;;;;;;;6.57;3.77;;;14.00;98.00;;;;;;5093837;28;20460;-67
2023/06/17 03:01:42;;;;;;;7.03;4.07;;;14.10;98.00;;;;;;5093740;28;20464;-67
2023/06/17 03:04:10;;;;;;;7.10;3.83;;;14.10;98.00;;;;;;5093959;28;20470;-67
2023/06/17 03:06:40;;;;;;;7.60;4.20;;;14.10;98.00;;;;;;5093627;28;20870;-67
2023/06/17 03:09:08;;;;;;;7.33;3.77;;;14.00;98.00;;;;;;5093968;28;20453;-67
2023/06/17 03:11:36;;;;;;;9.57;4.30;;;14.00;98.00;;;;;;5093361;28;20494;-67
2023/06/17 03:14:03;;;;;;;7.10;4.13;;;14.00;98.00;;;;;;5093840;28;20785;-67
2023/06/17 03:16:33;;;;;;;7.40;4.10;;;13.90;98.00;;;;;;5093432;28;20460;-67
2023/06/17 03:19:00;;;;;;;6.40;3.80;;;13.80;98.00;;;;;;5093662;28;20460;-67
2023/06/17 03:21:29;;;;;;;7.23;4.10;;;14.00;98.00;;;;;;5092315;28;20459;-67
2023/06/17 03:23:58;;;;;;;7.53;4.30;;;14.00;98.00;;;;;;5093434;28;20789;-67
2023/06/17 03:26:26;;;;;;;6.27;4.00;;;14.00;98.00;;;;;;5093346;28;20551;-67
2023/06/17 03:28:54;;;;;;;8.30;4.30;;;14.20;98.00;;;;;;5093610;28;20452;-67
2023/06/17 03:31:21;;;;;;;7.50;3.87;;;14.20;98.00;;;;;;5093332;28;20534;-67
2023/06/17 03:33:52;;;;;;;8.20;3.90;;;14.20;98.00;;;;;;5093309;28;20456;-67
2023/06/17 03:36:24;;;;;;;7.20;3.90;;;14.30;98.00;;;;;;5093429;28;20460;-67
2023/06/17 03:38:51;;;;;;;8.90;4.67;;;14.40;98.00;;;;;;5093225;28;20954;-67
2023/06/17 03:41:20;;;;;;;9.13;4.50;;;14.40;98.00;;;;;;5093332;28;20483;-67
2023/06/17 03:43:47;;;;;;;7.63;4.10;;;14.30;98.00;;;;;;5092899;28;20460;-67
2023/06/17 03:46:21;;;;;;;8.20;4.30;;;14.20;98.00;;;;;;5092720;28;20468;-67
2023/06/17 03:48:49;;;;;;;7.93;4.20;;;14.10;98.00;;;;;;5093222;28;20456;-67
2023/06/17 03:51:16;;;;;;;6.60;3.80;;;14.10;98.00;;;;;;5091542;28;20492;-67
2023/06/17 03:53:43;;;;;;;8.40;4.27;;;14.00;98.00;;;;;;5092824;28;21111;-67
2023/06/17 03:56:10;;;;;;;7.83;4.33;;;14.10;98.00;;;;;;5092824;28;20444;-67
2023/06/17 03:58:40;;;;;;;9.70;4.23;;;14.10;98.00;;;;;;5092745;28;20513;-67
2023/06/17 04:01:07;;;;;;;9.27;4.53;;;14.40;98.00;;;;;;5092684;28;20452;-67
2023/06/17 04:03:34;;;;;;;9.20;4.30;;;14.40;98.00;;;;;;5092713;28;20451;-67
2023/06/17 04:06:02;;;;;;;7.30;3.80;;;14.50;98.00;;;;;;5092555;28;20475;-67
2023/06/17 04:08:29;;;;;;;8.13;4.40;;;14.70;98.00;;;;;;5092663;28;20543;-67
2023/06/17 04:10:56;;;;;;;10.73;4.57;;;14.60;98.00;;;;;;5092658;28;20889;-67
2023/06/17 04:13:23;;;;;;;8.37;4.53;;;14.40;98.00;;;;;;5092528;28;20460;-67
2023/06/17 04:15:52;;;;;;;6.13;3.80;;;14.50;98.00;;;;;;5090905;28;20459;-67
2023/06/17 04:18:19;;;;;;;7.87;4.13;;;14.60;98.00;;;;;;5092354;28;20812;-67
2023/06/17 04:20:47;;;;;;;7.90;4.70;;;14.70;98.00;;;;;;5092541;28;20444;-67
2023/06/17 04:23:14;;;;;;;7.20;3.90;;;14.80;98.00;;;;;;5091242;28;20836;-67
2023/06/17 04:25:43;;;;;;;6.67;4.00;;;14.80;98.00;;;;;;5092462;28;20549;-67
2023/06/17 04:28:12;;;;;;;7.63;3.90;;;14.70;98.00;;;;;;5091403;28;20821;-67
2023/06/17 04:30:40;;;;;;;8.00;4.50;;;14.80;98.00;;;;;;5092460;28;20476;-67
2023/06/17 04:33:11;;;;;;;6.33;3.70;;;14.80;98.00;;;;;;5092345;28;20475;-67
2023/06/17 04:35:41;;;;;;;8.63;4.47;;;14.80;98.00;;;;;;5092244;28;20474;-67
2023/06/17 04:38:09;;;;;;;8.33;4.30;;;15.00;98.00;;;;;;5092211;28;20984;-67
2023/06/17 04:40:36;;;;;;;8.40;4.87;;;15.10;98.00;;;;;;5092067;28;20460;-67
2023/06/17 04:43:05;;;;;;;7.47;4.00;;;15.30;98.00;;;;;;5091956;28;20460;-67
2023/06/17 04:45:33;;;;;;;9.90;4.13;;;15.40;98.00;;;;;;5091702;28;20468;-67
2023/06/17 04:48:03;;;;;;;8.60;4.23;;;15.50;98.00;;;;;;5090826;28;20837;-67
2023/06/17 04:50:33;;;;;;;7.00;4.30;;;15.70;98.00;;;;;;5092006;28;20491;-67
2023/06/17 04:53:03;;;;;;;8.23;4.17;;;15.80;98.00;;;;;;5091944;28;20451;-67
2023/06/17 04:55:35;;;;;;;10.03;4.97;;;15.80;98.00;;;;;;5092017;28;20467;-67
2023/06/17 04:58:02;;;;;;;6.90;4.23;;;15.90;98.00;;;;;;5091935;28;20769;-67
2023/06/17 05:00:29;;;;;;;8.03;4.20;;;15.90;98.00;;;;;;5092107;28;20829;-67
2023/06/17 05:02:57;;;;;;;7.80;4.73;;;15.80;98.00;;;;;;5090672;28;20456;-67
2023/06/17 05:05:24;;;;;;;9.07;4.20;;;16.00;98.00;;;;;;5091952;28;20471;-67
2023/06/17 05:07:52;;;;;;;7.97;4.10;;;16.00;98.00;;;;;;5091831;28;20448;-67
2023/06/17 05:10:20;;;;;;;7.53;4.67;;;16.10;98.00;;;;;;5091968;28;20460;-67
2023/06/17 05:12:47;;;;;;;6.80;4.43;;;16.20;98.00;;;;;;5092232;28;21082;-67
2023/06/17 05:15:18;;;;;;;9.53;4.80;;;16.30;98.00;;;;;;5092117;28;20448;-67
2023/06/17 05:17:45;;;;;;;6.97;4.40;;;16.20;98.00;;;;;;5090717;28;20456;-67
2023/06/17 05:20:13;;;;;;;7.57;4.10;;;16.20;98.00;;;;;;5092058;28;20505;-67
2023/06/17 05:22:40;;;;;;;11.07;4.60;;;16.30;98.00;;;;;;5091798;28;20934;-67
2023/06/17 05:25:09;;;;;;;8.40;4.60;;;16.40;98.00;;;;;;5091981;28;20458;-67
2023/06/17 05:27:38;;;;;;;15.73;4.70;;;16.50;98.00;;;;;;5091740;28;20455;-68
2023/06/17 05:30:07;;;;;;;7.30;3.60;;;16.50;98.00;;;;;;5095659;28;20456;-67
2023/06/17 05:32:37;;;;;;;8.03;4.40;;;16.60;98.00;;;;;;5095342;28;20455;-67
2023/06/17 05:35:04;;;;;;;9.23;5.23;;;16.70;98.00;;;;;;5095733;28;20452;-67
2023/06/17 05:37:33;;;;;;;7.33;4.60;;;16.80;98.00;;;;;;5095089;28;20841;-67
2023/06/17 05:40:00;;;;;;;9.90;4.60;;;16.80;98.00;;;;;;5094407;28;20532;-67
2023/06/17 05:42:29;;;;;;;11.17;4.77;;;16.90;98.00;;;;;;5095266;28;20455;-67
2023/06/17 05:44:56;;;;;;;7.30;4.63;;;17.00;98.00;;;;;;5095066;28;20858;-67
2023/06/17 05:47:23;;;;;;;7.97;4.50;;;17.00;98.00;;;;;;5095288;28;20460;-67
2023/06/17 05:49:50;;;;;;;9.60;4.33;;;17.10;98.00;;;;;;5095120;28;20968;-68
2023/06/17 05:52:17;;;;;;;8.97;4.67;;;17.20;98.00;;;;;;5095015;28;20475;-67
2023/06/17 05:54:44;;;;;;;9.93;4.77;;;17.30;98.00;;;;;;5095052;28;20448;-67
2023/06/17 05:57:11;;;;;;;8.13;4.77;;;17.30;98.00;;;;;;5095054;28;20464;-67
2023/06/17 05:59:41;;;;;;;11.13;5.23;;;17.50;98.00;;;;;;5095002;28;20497;-68
2023/06/17 06:02:08;;;;;;;6.97;4.17;;;17.40;98.00;;;;;;5095036;28;20452;-68
2023/06/17 06:04:35;;;;;;;8.87;5.00;;;17.40;98.00;;;;;;5094771;28;20451;-68
2023/06/17 06:07:02;;;;;;;8.07;4.70;;;17.50;98.00;;;;;;5094938;28;20460;-68
2023/06/17 06:09:29;;;;;;;10.27;5.00;;;17.60;98.00;;;;;;5093847;28;20938;-68
2023/06/17 06:11:56;;;;;;;7.70;4.33;;;17.80;98.00;;;;;;5094729;28;20479;-67
2023/06/17 06:14:23;;;;;;;9.93;4.83;;;18.00;98.00;;;;;;5094971;28;20794;-67
2023/06/17 06:16:53;;;;;;;9.53;4.80;;;18.00;98.00;;;;;;5094811;28;20452;-68
2023/06/17 06:19:20;;;;;;;8.67;5.00;;;18.10;98.00;;;;;;5094952;28;20953;-68
2023/06/17 06:21:49;;;;;;;10.97;5.47;;;18.20;98.00;;;;;;5094973;28;20459;-68
2023/06/17 06:24:17;;;;;;;8.93;4.73;;;18.30;98.00;;;;;;5094730;28;20782;-65
2023/06/17 06:26:44;;;;;;;8.10;4.80;;;18.40;98.00;;;;;;5094569;28;20448;-65
2023/06/17 06:29:13;;;;;;;10.00;4.90;;;18.40;98.00;;;;;;5094454;28;20455;-65
2023/06/17 06:31:42;;;;;;;9.37;4.80;;;18.40;98.00;;;;;;5093222;28;20476;-65
2023/06/17 06:34:11;;;;;;;5.90;3.73;;;18.50;98.00;;;;;;5094100;28;20520;-69
2023/06/17 06:36:38;;;;;;;7.73;4.17;;;18.70;98.00;;;;;;5094291;28;20448;-69
2023/06/17 06:39:06;;;;;;;6.47;3.83;;;19.20;98.00;;;;;;5093916;28;20466;-69
2023/06/17 06:41:34;;;;;;;12.30;5.87;;;19.50;98.00;;;;;;5093071;28;20460;-69
2023/06/17 06:44:01;;;;;;;8.90;5.40;;;19.90;98.00;;;;;;5094272;28;20466;-69
2023/06/17 06:46:28;;;;;;;6.63;4.33;;;19.70;98.00;;;;;;5094065;28;20463;-69
2023/06/17 06:48:56;;;;;;;9.17;4.23;;;20.00;98.00;;;;;;5094074;28;20937;-69
2023/06/17 06:51:24;;;;;;;9.63;4.80;;;20.30;98.00;;;;;;5093804;28;20483;-69
2023/06/17 06:53:51;;;;;;;8.30;5.00;;;20.60;98.00;;;;;;5093898;28;20452;-69
2023/06/17 06:56:19;;;;;;;8.13;4.40;;;20.90;98.00;;;;;;5093933;28;20481;-69
2023/06/17 06:58:46;;;;;;;8.07;5.10;;;21.20;98.00;;;;;;5093838;28;20654;-69
2023/06/17 07:01:14;;;;;;;7.87;4.77;;;21.20;98.00;;;;;;5094077;28;20462;-69
2023/06/17 07:03:41;;;;;;;10.03;5.20;;;21.50;97.40;;;;;;5093729;28;20484;-69
2023/06/17 07:06:08;;;;;;;8.20;4.77;;;21.70;96.80;;;;;;5094016;28;20475;-69
2023/06/17 07:08:37;;;;;;;10.07;5.50;;;21.90;96.00;;;;;;5093859;28;20781;-69
2023/06/17 07:11:04;;;;;;;9.53;5.13;;;21.90;95.20;;;;;;5093807;28;20822;-69
2023/06/17 07:13:31;;;;;;;9.60;5.43;;;22.00;95.10;;;;;;5093806;28;20463;-69
2023/06/17 07:15:58;;;;;;;7.53;4.73;;;22.20;94.90;;;;;;5093674;28;20460;-69
2023/06/17 07:18:25;;;;;;;7.40;4.60;;;22.30;94.20;;;;;;5093840;28;20946;-69
2023/06/17 07:20:57;;;;;;;8.80;5.27;;;22.50;94.00;;;;;;5092478;28;20459;-69
2023/06/17 07:23:25;;;;;;;9.70;5.67;;;22.60;93.50;;;;;;5072457;28;20951;-69
2023/06/17 07:25:54;;;;;;;9.40;5.10;;;22.50;93.20;;;;;;5072214;28;20457;-68
2023/06/17 07:28:21;;;;;;;8.10;5.03;;;22.60;93.20;;;;;;5072336;28;20835;-65
2023/06/17 07:30:49;;;;;;;10.73;5.30;;;22.60;92.80;;;;;;5072111;28;20484;-64
2023/06/17 07:33:16;;;;;;;9.00;5.50;;;22.60;92.70;;;;;;5072149;28;20449;-64
2023/06/17 07:35:43;;;;;;;9.97;5.30;;;22.60;93.50;;;;;;5072198;28;20461;-64
2023/06/17 07:38:10;;;;;;;8.43;5.10;;;22.60;92.30;;;;;;5071961;28;20453;-63
2023/06/17 07:40:37;;;;;;;10.73;5.60;;;22.50;91.50;;;;;;5072100;28;20457;-64
2023/06/17 07:43:09;;;;;;;10.23;5.43;;;22.50;92.40;;;;;;5071846;28;20551;-64
2023/06/17 07:45:36;;;;;;;8.40;5.20;;;22.50;92.50;;;;;;5071874;28;20469;-64
2023/06/17 07:48:03;;;;;;;9.03;5.33;;;22.50;91.70;;;;;;5070825;28;20802;-64
2023/06/17 07:50:31;;;;;;;12.17;5.67;;;22.50;91.80;;;;;;5071709;28;20633;-64
2023/06/17 07:52:58;;;;;;;10.00;5.33;;;22.50;91.70;;;;;;5072245;28;20888;-65
2023/06/17 07:55:25;;;;;;;9.10;4.93;;;22.50;91.70;;;;;;5072445;28;20456;-64
2023/06/17 07:57:52;;;;;;;10.73;5.60;;;22.60;91.50;;;;;;5072290;28;20452;-65
2023/06/17 08:00:21;;;;;;;9.87;4.90;;;22.60;91.20;;;;;;5072095;28;20457;-64
2023/06/17 08:02:48;;;;;;;11.20;6.30;;;22.60;90.80;;;;;;5070593;28;20845;-65
2023/06/17 08:05:16;;;;;;;8.27;5.43;;;22.70;90.60;;;;;;5071696;28;20959;-64
2023/06/17 08:07:43;;;;;;;11.17;5.80;;;22.90;91.00;;;;;;5071577;28;20464;-64
2023/06/17 08:10:10;;;;;;;10.33;6.03;;;23.00;89.90;;;;;;5071756;28;20502;-65
2023/06/17 08:12:37;;;;;;;9.40;5.50;;;23.10;89.90;;;;;;5071471;28;20672;-64
2023/06/17 08:15:05;;;;;;;9.70;5.50;;;23.20;89.70;;;;;;5070382;28;20958;-65
2023/06/17 08:17:35;;;;;;;9.23;5.43;;;23.30;88.10;;;;;;5071556;28;20449;-64
2023/06/17 08:20:02;;;;;;;10.50;5.77;;;23.30;90.20;;;;;;5071858;28;20461;-65
2023/06/17 08:22:29;;;;;;;10.07;5.60;;;23.50;89.40;;;;;;5071845;28;20449;-64
2023/06/17 08:24:56;;;;;;;11.17;5.93;;;23.70;88.60;;;;;;5071352;28;21024;-65
2023/06/17 08:27:23;;;;;;;10.60;5.67;;;23.80;87.80;;;;;;5071565;28;20614;-64
2023/06/17 08:29:50;;;;;;;8.80;5.43;;;23.90;87.60;;;;;;5070174;28;21325;-64
2023/06/17 08:32:17;;;;;;;9.17;5.00;;;24.00;87.20;;;;;;5071398;28;20720;-63
2023/06/17 08:34:46;;;;;;;9.30;5.40;;;24.00;85.60;;;;;;5071387;28;20526;-64
2023/06/17 08:37:13;;;;;;;9.90;5.60;;;24.10;87.20;;;;;;5071205;28;20453;-65
2023/06/17 08:39:42;;;;;;;10.80;5.50;;;24.30;85.20;;;;;;5071263;28;20456;-64
2023/06/17 08:42:10;;;;;;;9.33;5.30;;;24.40;84.40;;;;;;5071225;28;20498;-65
2023/06/17 08:44:44;;;;;;;9.53;5.27;;;24.40;83.50;;;;;;5071178;28;20448;-65
2023/06/17 08:47:15;;;;;;;9.30;5.33;;;24.70;82.50;;;;;;5070879;28;20472;-64
2023/06/17 08:49:46;;;;;;;7.63;4.37;;;24.90;82.90;;;;;;5069993;28;20540;-64
2023/06/17 08:52:15;;;;;;;8.20;4.80;;;25.10;79.00;;;;;;5071053;28;20499;-65
2023/06/17 08:54:42;;;;;;;7.80;4.73;;;25.20;79.10;;;;;;5071306;28;20456;-65
2023/06/17 08:57:12;;;;;;;8.00;5.03;;;25.20;79.10;;;;;;5071020;28;20448;-65
2023/06/17 08:59:39;;;;;;;8.60;4.73;;;25.20;77.70;;;;;;5071204;28;20476;-64
2023/06/17 09:02:07;;;;;;;7.90;4.73;;;25.20;77.50;;;;;;5071886;28;20823;-64
2023/06/17 09:04:35;;;;;;;8.13;4.57;;;25.20;76.30;;;;;;5075276;28;20456;-65
2023/06/17 09:07:04;;;;;;;9.07;4.90;;;25.40;76.60;;;;;;5074945;28;20518;-64
2023/06/17 09:09:31;;;;;;;7.50;4.80;;;25.50;76.80;;;;;;5075140;28;20452;-65
2023/06/17 09:12:04;;;;;;;7.20;4.50;;;25.60;76.70;;;;;;5074970;28;20480;-65
2023/06/17 09:14:31;;;;;;;7.17;4.90;;;25.70;75.70;;;;;;5075392;28;20463;-65
2023/06/17 09:17:01;;;;;;;7.70;4.63;;;25.80;75.30;;;;;;5074950;28;20444;-65
2023/06/17 09:19:31;;;;;;;8.53;4.80;;;26.00;76.20;;;;;;5075115;28;20488;-65
2023/06/17 09:22:06;;;;;;;8.07;4.60;;;25.80;73.80;;;;;;5075040;28;21017;-65
2023/06/17 09:24:33;;;;;;;7.23;4.40;;;25.80;74.20;;;;;;5074924;28;20452;-65
2023/06/17 09:27:02;;;;;;;6.53;4.30;;;26.00;73.50;;;;;;5074941;28;20869;-65
2023/06/17 09:29:30;;;;;;;7.67;4.70;;;26.10;72.90;;;;;;5074786;28;20513;-69
2023/06/17 09:31:57;;;;;;;9.50;4.97;;;26.30;72.90;;;;;;5073410;28;20516;-69
2023/06/17 09:34:27;;;;;;;6.60;4.37;;;26.30;72.50;;;;;;5074661;28;20461;-69
2023/06/17 09:36:59;;;;;;;6.90;4.77;;;26.30;73.10;;;;;;5074618;28;20465;-74
2023/06/17 09:39:31;;;;;;;8.20;5.07;;;26.30;73.40;;;;;;5074708;28;20832;-69
2023/06/17 09:42:06;;;;;;;8.70;5.50;;;26.50;73.00;;;;;;5074454;28;20492;-70
2023/06/17 09:44:38;;;;;;;7.70;4.80;;;26.70;71.00;;;;;;5074454;28;20814;-68
2023/06/17 09:47:09;;;;;;;7.60;4.80;;;26.80;71.80;;;;;;5074328;28;20476;-69
2023/06/17 09:49:36;;;;;;;7.10;4.60;;;27.00;69.70;;;;;;5074293;28;20460;-69
2023/06/17 09:52:05;;;;;;;9.10;5.17;;;27.10;68.70;;;;;;5074300;28;20495;-68
2023/06/17 09:54:35;;;;;;;8.40;4.80;;;27.40;69.70;;;;;;5074364;28;20456;-72
2023/06/17 09:57:05;;;;;;;9.18;4.97;;;27.70;67.20;;;;;;5073242;28;20450;-68
2023/06/17 09:59:32;;;;;;;8.50;5.37;;;27.70;69.50;;;;;;5074079;28;20264;-68
2023/06/17 10:01:59;;;;;;;8.47;5.10;;;27.70;69.70;;;;;;5074057;28;20970;-68
2023/06/17 10:04:26;;;;;;;8.07;5.03;;;27.80;67.40;;;;;;5072902;28;20453;-68
2023/06/17 10:06:54;;;;;;;7.70;4.73;;;27.80;67.00;;;;;;5074089;28;20452;-68
2023/06/17 10:09:21;;;;;;;7.80;4.77;;;27.90;67.50;;;;;;5074339;28;20449;-68
2023/06/17 10:11:53;;;;;;;7.47;4.70;;;28.10;69.80;;;;;;5074197;28;20511;-68
2023/06/17 10:14:25;;;;;;;7.97;4.60;;;28.40;67.80;;;;;;5073251;28;20485;-68
2023/06/17 10:16:52;;;;;;;7.40;4.60;;;28.60;67.80;;;;;;5073907;28;20534;-68
2023/06/17 10:19:23;;;;;;;8.80;4.83;;;28.80;66.40;;;;;;5073737;28;20972;-68
2023/06/17 10:21:53;;;;;;;7.63;4.67;;;28.80;66.60;;;;;;5073844;28;20496;-68
2023/06/17 10:24:22;;;;;;;10.10;5.30;;;28.90;66.70;;;;;;5073694;28;20461;-68
2023/06/17 10:26:53;;;;;;;8.50;5.23;;;29.10;67.00;;;;;;5073710;28;20518;-68
2023/06/17 10:29:21;;;;;;;6.90;4.10;;;29.20;67.40;;;;;;5073715;28;20518;-68
2023/06/17 10:31:48;;;;;;;7.70;4.97;;;29.30;65.70;;;;;;5072520;28;20453;-67
2023/06/17 10:34:16;;;;;;;7.60;4.73;;;29.30;65.80;;;;;;5073508;28;20449;-68
2023/06/17 10:36:48;;;;;;;7.53;4.70;;;29.40;65.80;;;;;;5073405;28;20480;-68
2023/06/17 10:39:15;;;;;;;6.20;4.43;;;29.50;64.90;;;;;;5073524;28;20465;-67
2023/06/17 10:42:13;;;;;;;7.13;4.60;;;29.50;63.10;;;;;;5073429;28;20457;-69
2023/06/17 10:44:42;;;;;;;7.83;4.60;;;29.20;63.10;;;;;;5072510;28;20465;-66
2023/06/17 10:47:23;;;;;;;6.83;4.50;;;28.90;64.20;;;;;;5073298;28;20489;-66
2023/06/17 10:49:52;;;;;;;7.17;4.57;;;28.70;62.90;;;;;;5073232;28;20796;-67
2023/06/17 10:52:20;;;;;;;6.80;4.30;;;28.70;62.80;;;;;;5073191;28;20481;-67
2023/06/17 10:54:51;;;;;;;7.97;4.50;;;28.80;64.60;;;;;;5073189;28;20547;-67
2023/06/17 10:57:31;;;;;;;7.07;4.27;;;28.90;63.90;;;;;;5073324;28;20496;-67
2023/06/17 11:00:01;;;;;;;6.90;4.30;;;28.90;64.10;;;;;;5073101;28;20510;-65
2023/06/17 11:02:28;;;;;;;6.97;4.50;;;29.00;64.40;;;;;;5071923;28;20485;-67
2023/06/17 11:04:57;;;;;;;6.80;4.03;;;29.10;62.10;;;;;;5072327;28;20788;-64
2023/06/17 11:07:28;;;;;;;7.60;4.63;;;29.10;61.10;;;;;;5073316;28;20481;-66
2023/06/17 11:09:55;;;;;;;7.37;4.33;;;29.10;62.10;;;;;;5072832;28;20453;-66
2023/06/17 11:12:22;;;;;;;9.50;4.30;;;29.10;61.40;;;;;;5072373;28;20476;-67
2023/06/17 11:14:50;;;;;;;9.27;5.40;;;29.10;61.90;;;;;;5072649;28;20495;-67
2023/06/17 11:17:17;;;;;;;7.00;4.80;;;29.10;62.80;;;;;;5072548;28;20453;-67
2023/06/17 11:19:45;;;;;;;10.50;5.30;;;29.20;62.50;;;;;;5072601;28;20456;-67
2023/06/17 11:22:12;;;;;;;6.60;4.83;;;29.30;62.50;;;;;;5072514;28;20986;-67
2023/06/17 11:24:39;;;;;;;8.00;5.10;;;29.30;61.80;;;;;;5072555;28;20860;-67
2023/06/17 11:27:10;;;;;;;8.23;4.67;;;29.20;61.40;;;;;;5071292;28;20457;-67
2023/06/17 11:29:41;;;;;;;7.23;5.00;;;29.30;62.30;;;;;;5072285;28;20453;-67
2023/06/17 11:32:13;;;;;;;8.60;5.23;;;29.60;63.90;;;;;;5072292;28;20501;-67
2023/06/17 11:34:43;;;;;;;8.07;4.80;;;29.70;63.00;;;;;;5072397;28;20453;-67
2023/06/17 11:37:10;;;;;;;8.67;5.17;;;29.60;62.70;;;;;;5071037;28;20475;-67
2023/06/17 11:39:38;;;;;;;7.03;4.80;;;29.70;64.10;;;;;;5072274;28;20464;-67
2023/06/17 11:42:08;;;;;;;7.20;4.90;;;29.90;61.40;;;;;;5072203;28;20459;-67
2023/06/17 11:44:36;;;;;;;13.13;5.13;;;30.10;62.90;;;;;;5071056;28;20457;-67
2023/06/17 11:47:04;;;;;;;6.73;4.90;;;30.10;62.90;;;;;;5071933;28;20457;-67
2023/06/17 11:49:32;;;;;;;6.90;4.90;;;30.10;62.20;;;;;;5071918;28;20544;-67
2023/06/17 11:52:05;;;;;;;6.47;4.67;;;30.20;62.20;;;;;;5072097;28;20582;-67
2023/06/17 11:54:33;;;;;;;7.77;5.10;;;30.50;63.40;;;;;;5072091;28;21056;-67
2023/06/17 11:57:02;;;;;;;8.67;5.40;;;30.60;61.30;;;;;;5072001;28;20468;-67
2023/06/17 11:59:31;;;;;;;7.17;4.70;;;30.60;61.30;;;;;;5071936;28;20507;-67
2023/06/17 12:01:58;;;;;;;9.10;5.30;;;30.60;61.20;;;;;;5072096;28;20474;-67
2023/06/17 12:04:25;;;;;;;8.10;5.00;;;30.40;60.70;;;;;;5070603;28;20449;-67
2023/06/17 12:06:54;;;;;;;9.40;5.43;;;30.40;62.90;;;;;;5071980;28;20976;-67
2023/06/17 12:09:21;;;;;;;7.03;4.53;;;30.80;63.20;;;;;;5071538;28;20484;-67
2023/06/17 12:11:48;;;;;;;8.40;5.00;;;31.00;59.30;;;;;;5071720;28;20552;-67
2023/06/17 12:14:15;;;;;;;7.23;4.90;;;30.70;60.90;;;;;;5071425;28;20484;-67
2023/06/17 12:16:43;;;;;;;12.83;5.20;;;30.60;59.40;;;;;;5071760;28;20926;-67
2023/06/17 12:19:20;;;;;;;7.20;5.00;;;30.60;60.30;;;;;;5071630;28;21139;-67
2023/06/17 12:21:47;;;;;;;7.00;4.43;;;30.70;61.40;;;;;;5071919;28;20838;-67
2023/06/17 12:24:17;;;;;;;9.33;5.30;;;31.10;59.10;;;;;;5072233;28;20615;-67
2023/06/17 12:26:47;;;;;;;7.17;5.20;;;31.40;60.20;;;;;;5072198;28;20457;-67
2023/06/17 12:29:14;;;;;;;7.67;4.93;;;31.50;59.50;;;;;;5072280;28;20551;-68
2023/06/17 12:31:42;;;;;;;8.87;5.10;;;31.50;59.20;;;;;;5072022;28;20469;-67
2023/06/17 12:34:09;;;;;;;8.00;5.23;;;31.50;60.00;;;;;;5072037;28;20477;-67
2023/06/17 12:36:37;;;;;;;8.77;5.67;;;31.00;60.50;;;;;;5071823;28;20449;-67
2023/06/17 12:39:04;;;;;;;8.73;5.03;;;30.70;60.50;;;;;;5070572;28;20503;-67
2023/06/17 12:41:33;;;;;;;7.57;5.27;;;30.70;59.90;;;;;;5072020;28;20449;-67
2023/06/17 12:44:00;;;;;;;8.47;5.10;;;31.00;60.50;;;;;;5072262;28;20534;-67
2023/06/17 12:46:27;;;;;;;8.87;5.37;;;31.40;59.00;;;;;;5070863;28;20547;-67
2023/06/17 12:48:56;;;;;;;9.97;5.67;;;31.60;59.20;;;;;;5071751;28;20445;-67
2023/06/17 12:51:23;;;;;;;7.73;5.17;;;31.60;59.90;;;;;;5072183;28;20880;-67